createdAt,value
2017-03-02T00:00:55.577Z,0
2017-03-02T00:01:55.540Z,0
2017-03-02T00:02:55.541Z,0
2017-03-02T00:03:55.519Z,0
2017-03-02T00:04:55.512Z,0
2017-03-02T00:05:55.481Z,0
2017-03-02T00:06:55.482Z,0
2017-03-02T00:07:55.071Z,0
2017-03-02T00:08:55.453Z,0
2017-03-02T00:09:55.431Z,0
2017-03-02T00:10:55.408Z,0
2017-03-02T00:11:55.408Z,0
2017-03-02T00:12:54.980Z,0
2017-03-02T00:13:55.361Z,0
2017-03-02T00:14:55.351Z,0
2017-03-02T00:15:55.371Z,0
2017-03-02T00:16:55.350Z,0
2017-03-02T00:17:55.311Z,0
2017-03-02T00:18:55.312Z,0
2017-03-02T00:19:55.295Z,0
2017-03-02T00:20:55.293Z,0
2017-03-02T00:21:55.269Z,0
2017-03-02T00:22:55.254Z,0
2017-03-02T00:23:55.222Z,0
2017-03-02T00:24:55.210Z,0
2017-03-02T00:25:55.204Z,0
2017-03-02T00:26:55.200Z,0
2017-03-02T00:27:55.177Z,0
2017-03-02T00:28:55.166Z,0
2017-03-02T00:29:54.339Z,0
2017-03-02T00:30:55.148Z,0
2017-03-02T00:31:55.111Z,0
2017-03-02T00:32:55.112Z,0
2017-03-02T00:33:55.087Z,0
2017-03-02T00:34:55.089Z,0
2017-03-02T00:35:55.061Z,0
2017-03-02T00:36:54.643Z,0
2017-03-02T00:37:55.025Z,0
2017-03-02T00:38:55.024Z,0
2017-03-02T00:39:54.999Z,0
2017-03-02T00:40:54.987Z,0
2017-03-02T00:41:54.591Z,0
2017-03-02T00:42:54.959Z,0
2017-03-02T00:43:54.970Z,0
2017-03-02T00:44:54.937Z,0
2017-03-02T00:45:54.922Z,0
2017-03-02T00:46:54.911Z,0
2017-03-02T00:47:54.896Z,0
2017-03-02T00:48:54.861Z,0
2017-03-02T00:49:54.858Z,0
2017-03-02T00:50:54.854Z,0
2017-03-02T00:51:54.844Z,0
2017-03-02T00:52:54.806Z,0
2017-03-02T00:53:54.810Z,0
2017-03-02T00:54:54.781Z,0
2017-03-02T00:55:54.778Z,0
2017-03-02T00:56:54.768Z,0
2017-03-02T00:57:54.368Z,0
2017-03-02T00:58:54.751Z,0
2017-03-02T00:59:54.716Z,0
2017-03-02T01:00:54.722Z,0
2017-03-02T01:01:53.937Z,0
2017-03-02T01:02:54.685Z,0
2017-03-02T01:03:54.668Z,0
2017-03-02T01:04:54.642Z,0
2017-03-02T01:05:54.687Z,0
2017-03-02T01:06:54.623Z,0
2017-03-02T01:07:54.219Z,0
2017-03-02T01:08:54.600Z,0
2017-03-02T01:09:54.579Z,0
2017-03-02T01:10:54.570Z,0
2017-03-02T01:11:54.577Z,0
2017-03-02T01:12:54.549Z,0
2017-03-02T01:13:54.516Z,0
2017-03-02T01:14:53.707Z,0
2017-03-02T01:15:53.703Z,0
2017-03-02T01:16:54.482Z,0
2017-03-02T01:17:53.661Z,0
2017-03-02T01:18:54.452Z,0
2017-03-02T01:19:54.439Z,0
2017-03-02T01:20:54.428Z,0
2017-03-02T01:21:54.411Z,0
2017-03-02T01:22:54.023Z,0
2017-03-02T01:23:54.391Z,0
2017-03-02T01:24:54.381Z,0
2017-03-02T01:25:54.361Z,0
2017-03-02T01:26:53.955Z,0
2017-03-02T01:27:54.327Z,0
2017-03-02T01:28:54.331Z,0
2017-03-02T01:29:54.311Z,0
2017-03-02T01:30:54.337Z,0
2017-03-02T01:31:54.283Z,0
2017-03-02T01:32:54.250Z,0
2017-03-02T01:33:54.270Z,0
2017-03-02T01:34:53.834Z,0
2017-03-02T01:35:53.827Z,0
2017-03-02T01:36:53.810Z,0
2017-03-02T01:37:53.823Z,0
2017-03-02T01:38:53.778Z,0
2017-03-02T01:39:54.158Z,0
2017-03-02T01:40:54.157Z,0
2017-03-02T01:41:53.771Z,0
2017-03-02T01:42:53.726Z,0
2017-03-02T01:43:53.708Z,0
2017-03-02T01:44:53.698Z,0
2017-03-02T01:45:53.682Z,0
2017-03-02T01:46:54.082Z,0
2017-03-02T01:47:53.670Z,0
2017-03-02T01:48:53.642Z,0
2017-03-02T01:49:54.020Z,0
2017-03-02T01:50:53.601Z,0
2017-03-02T01:51:53.591Z,0
2017-03-02T01:52:53.597Z,0
2017-03-02T01:53:53.980Z,0
2017-03-02T01:54:53.952Z,0
2017-03-02T01:55:53.548Z,0
2017-03-02T01:56:53.548Z,0
2017-03-02T01:57:53.517Z,0
2017-03-02T01:58:53.516Z,0
2017-03-02T01:59:53.497Z,0
2017-03-02T02:00:53.885Z,0
2017-03-02T02:01:53.881Z,0
2017-03-02T02:02:53.872Z,0
2017-03-02T02:03:53.460Z,0
2017-03-02T02:04:53.840Z,0
2017-03-02T02:05:53.808Z,0
2017-03-02T02:06:53.425Z,0
2017-03-02T02:07:53.370Z,0
2017-03-02T02:08:53.766Z,0
2017-03-02T02:09:53.764Z,0
2017-03-02T02:10:53.739Z,0
2017-03-02T02:11:53.723Z,0
2017-03-02T02:12:53.719Z,0
2017-03-02T02:13:53.310Z,0
2017-03-02T02:14:53.304Z,0
2017-03-02T02:15:53.285Z,0
2017-03-02T02:16:53.650Z,0
2017-03-02T02:17:53.642Z,0
2017-03-02T02:18:53.647Z,0
2017-03-02T02:19:53.611Z,0
2017-03-02T02:20:53.612Z,0
2017-03-02T02:21:53.198Z,0
2017-03-02T02:22:53.596Z,0
2017-03-02T02:23:53.588Z,0
2017-03-02T02:24:53.544Z,0
2017-03-02T02:25:53.540Z,0
2017-03-02T02:26:53.519Z,0
2017-03-02T02:27:53.511Z,0
2017-03-02T02:28:53.494Z,0
2017-03-02T02:29:53.081Z,0
2017-03-02T02:30:53.474Z,0
2017-03-02T02:31:53.068Z,0
2017-03-02T02:32:53.449Z,0
2017-03-02T02:33:53.056Z,0
2017-03-02T02:34:53.479Z,0
2017-03-02T02:35:53.406Z,0
2017-03-02T02:36:53.390Z,0
2017-03-02T02:37:53.379Z,0
2017-03-02T02:38:52.979Z,0
2017-03-02T02:39:53.384Z,0
2017-03-02T02:40:53.334Z,0
2017-03-02T02:41:53.331Z,0
2017-03-02T02:42:53.311Z,0
2017-03-02T02:43:53.288Z,0
2017-03-02T02:44:53.290Z,0
2017-03-02T02:45:53.270Z,0
2017-03-02T02:46:53.280Z,0
2017-03-02T02:47:53.243Z,0
2017-03-02T02:48:53.229Z,0
2017-03-02T02:49:53.214Z,0
2017-03-02T02:50:53.200Z,0
2017-03-02T02:51:53.193Z,0
2017-03-02T02:52:53.177Z,0
2017-03-02T02:53:53.150Z,0
2017-03-02T02:54:53.137Z,0
2017-03-02T02:55:53.142Z,0
2017-03-02T02:56:52.750Z,0
2017-03-02T02:57:53.113Z,0
2017-03-02T02:58:53.105Z,0
2017-03-02T02:59:53.089Z,0
2017-03-02T03:00:52.665Z,0
2017-03-02T03:01:53.047Z,0
2017-03-02T03:02:53.046Z,0
2017-03-02T03:03:53.034Z,0
2017-03-02T03:04:53.010Z,0
2017-03-02T03:05:52.993Z,0
2017-03-02T03:06:53.004Z,0
2017-03-02T03:07:52.583Z,0
2017-03-02T03:08:52.573Z,0
2017-03-02T03:09:52.949Z,0
2017-03-02T03:10:52.948Z,0
2017-03-02T03:11:52.919Z,0
2017-03-02T03:12:52.911Z,0
2017-03-02T03:13:53.013Z,0
2017-03-02T03:14:52.885Z,0
2017-03-02T03:15:52.863Z,0
2017-03-02T03:16:52.866Z,0
2017-03-02T03:17:52.854Z,0
2017-03-02T03:18:52.830Z,0
2017-03-02T03:19:52.830Z,0
2017-03-02T03:20:52.807Z,0
2017-03-02T03:21:52.798Z,0
2017-03-02T03:22:52.774Z,0
2017-03-02T03:23:52.773Z,0
2017-03-02T03:24:52.753Z,0
2017-03-02T03:25:52.742Z,0
2017-03-02T03:26:52.733Z,0
2017-03-02T03:27:52.720Z,0
2017-03-02T03:28:52.337Z,0
2017-03-02T03:29:52.690Z,0
2017-03-02T03:30:52.299Z,0
2017-03-02T03:31:52.679Z,0
2017-03-02T03:32:52.648Z,0
2017-03-02T03:33:52.633Z,0
2017-03-02T03:34:52.633Z,0
2017-03-02T03:35:52.636Z,0
2017-03-02T03:36:52.621Z,0
2017-03-02T03:37:52.594Z,0
2017-03-02T03:38:52.572Z,0
2017-03-02T03:39:52.558Z,0
2017-03-02T03:40:52.154Z,0
2017-03-02T03:41:52.550Z,0
2017-03-02T03:42:52.137Z,0
2017-03-02T03:43:52.519Z,0
2017-03-02T03:44:52.503Z,0
2017-03-02T03:45:52.481Z,0
2017-03-02T03:46:52.462Z,0
2017-03-02T03:47:52.453Z,0
2017-03-02T03:48:52.474Z,0
2017-03-02T03:49:52.485Z,0
2017-03-02T03:50:51.221Z,0
2017-03-02T03:51:51.635Z,0
2017-03-02T03:52:51.994Z,0
2017-03-02T03:53:52.378Z,0
2017-03-02T03:54:52.379Z,0
2017-03-02T03:55:52.381Z,0
2017-03-02T03:56:51.945Z,0
2017-03-02T03:57:52.330Z,0
2017-03-02T03:58:52.321Z,0
2017-03-02T03:59:52.310Z,0
2017-03-02T04:00:52.300Z,0
2017-03-02T04:01:52.282Z,0
2017-03-02T04:02:52.302Z,0
2017-03-02T04:03:51.852Z,0
2017-03-02T04:04:52.236Z,0
2017-03-02T04:05:51.825Z,0
2017-03-02T04:06:52.235Z,0
2017-03-02T04:07:52.193Z,0
2017-03-02T04:08:51.811Z,0
2017-03-02T04:09:52.175Z,0
2017-03-02T04:10:52.179Z,0
2017-03-02T04:11:52.153Z,0
2017-03-02T04:12:51.337Z,0
2017-03-02T04:13:52.147Z,0
2017-03-02T04:14:52.117Z,0
2017-03-02T04:15:51.319Z,0
2017-03-02T04:16:52.083Z,0
2017-03-02T04:17:52.068Z,0
2017-03-02T04:18:51.271Z,0
2017-03-02T04:19:52.052Z,0
2017-03-02T04:20:52.043Z,0
2017-03-02T04:21:51.631Z,0
2017-03-02T04:22:52.031Z,0
2017-03-02T04:23:52.064Z,0
2017-03-02T04:24:51.990Z,0
2017-03-02T04:25:51.995Z,0
2017-03-02T04:26:51.968Z,0
2017-03-02T04:27:51.953Z,0
2017-03-02T04:28:51.188Z,0
2017-03-02T04:29:51.541Z,0
2017-03-02T04:30:51.912Z,0
2017-03-02T04:31:51.916Z,0
2017-03-02T04:32:51.899Z,0
2017-03-02T04:33:51.485Z,0
2017-03-02T04:34:51.457Z,0
2017-03-02T04:35:51.447Z,0
2017-03-02T04:36:51.443Z,0
2017-03-02T04:37:51.833Z,0
2017-03-02T04:38:51.415Z,0
2017-03-02T04:39:51.833Z,0
2017-03-02T04:40:51.380Z,0
2017-03-02T04:41:51.781Z,0
2017-03-02T04:42:51.355Z,0
2017-03-02T04:43:51.366Z,0
2017-03-02T04:44:51.344Z,0
2017-03-02T04:45:51.850Z,0
2017-03-02T04:46:51.321Z,0
2017-03-02T04:47:51.305Z,0
2017-03-02T04:48:51.690Z,0
2017-03-02T04:49:51.669Z,0
2017-03-02T04:50:51.278Z,0
2017-03-02T04:51:51.250Z,0
2017-03-02T04:52:51.235Z,0
2017-03-02T04:53:51.611Z,0
2017-03-02T04:54:51.616Z,0
2017-03-02T04:55:51.184Z,0
2017-03-02T04:56:51.581Z,0
2017-03-02T04:57:51.576Z,0
2017-03-02T04:58:51.563Z,0
2017-03-02T04:59:51.533Z,0
2017-03-02T05:00:51.536Z,0
2017-03-02T05:01:51.535Z,0
2017-03-02T05:02:51.095Z,0
2017-03-02T05:03:51.480Z,0
2017-03-02T05:04:51.085Z,0
2017-03-02T05:05:51.452Z,0
2017-03-02T05:06:51.449Z,0
2017-03-02T05:07:51.022Z,0
2017-03-02T05:08:51.438Z,0
2017-03-02T05:09:51.414Z,0
2017-03-02T05:10:51.399Z,0
2017-03-02T05:11:51.372Z,0
2017-03-02T05:12:50.978Z,0
2017-03-02T05:13:51.350Z,0
2017-03-02T05:14:50.570Z,0
2017-03-02T05:15:51.325Z,0
2017-03-02T05:16:51.320Z,0
2017-03-02T05:17:50.951Z,0
2017-03-02T05:18:51.323Z,0
2017-03-02T05:19:50.878Z,0
2017-03-02T05:20:51.251Z,0
2017-03-02T05:21:51.287Z,0
2017-03-02T05:22:51.236Z,0
2017-03-02T05:23:51.258Z,0
2017-03-02T05:24:51.250Z,0
2017-03-02T05:25:51.199Z,0
2017-03-02T05:26:51.203Z,0
2017-03-02T05:27:51.162Z,0
2017-03-02T05:28:51.159Z,0
2017-03-02T05:29:50.740Z,0
2017-03-02T05:30:51.128Z,0
2017-03-02T05:31:51.128Z,0
2017-03-02T05:32:51.112Z,0
2017-03-02T05:33:50.716Z,0
2017-03-02T05:34:51.108Z,0
2017-03-02T05:35:50.659Z,0
2017-03-02T05:36:51.041Z,0
2017-03-02T05:37:51.036Z,0
2017-03-02T05:38:51.039Z,0
2017-03-02T05:39:51.024Z,0
2017-03-02T05:40:51.001Z,0
2017-03-02T05:41:50.994Z,0
2017-03-02T05:42:51.007Z,0
2017-03-02T05:43:50.958Z,0
2017-03-02T05:44:50.548Z,0
2017-03-02T05:45:50.959Z,0
2017-03-02T05:46:50.923Z,0
2017-03-02T05:47:50.937Z,0
2017-03-02T05:48:50.914Z,5
2017-03-02T05:49:50.890Z,5
2017-03-02T05:50:50.899Z,5
2017-03-02T05:51:50.886Z,5
2017-03-02T05:52:50.847Z,5
2017-03-02T05:53:50.843Z,5
2017-03-02T05:54:50.829Z,5
2017-03-02T05:55:50.808Z,10
2017-03-02T05:56:50.802Z,10
2017-03-02T05:57:50.783Z,10
2017-03-02T05:58:50.779Z,10
2017-03-02T05:59:50.754Z,10
2017-03-02T06:00:50.756Z,10
2017-03-02T06:01:50.336Z,15
2017-03-02T06:02:50.328Z,15
2017-03-02T06:03:50.706Z,15
2017-03-02T06:04:50.309Z,15
2017-03-02T06:05:50.685Z,20
2017-03-02T06:06:50.672Z,20
2017-03-02T06:07:50.665Z,20
2017-03-02T06:08:50.652Z,20
2017-03-02T06:09:50.643Z,20
2017-03-02T06:10:50.615Z,15
2017-03-02T06:11:50.645Z,20
2017-03-02T06:12:50.584Z,20
2017-03-02T06:13:50.194Z,25
2017-03-02T06:14:50.582Z,25
2017-03-02T06:15:50.149Z,20
2017-03-02T06:16:50.550Z,25
2017-03-02T06:17:50.537Z,20
2017-03-02T06:18:50.106Z,20
2017-03-02T06:19:50.496Z,25
2017-03-02T06:20:50.085Z,25
2017-03-02T06:21:50.479Z,30
2017-03-02T06:22:50.457Z,35
2017-03-02T06:23:50.050Z,35
2017-03-02T06:24:50.450Z,40
2017-03-02T06:25:50.451Z,40
2017-03-02T06:26:50.031Z,35
2017-03-02T06:27:49.994Z,45
2017-03-02T06:28:50.376Z,55
2017-03-02T06:29:50.372Z,60
2017-03-02T06:30:50.367Z,60
2017-03-02T06:31:49.995Z,50
2017-03-02T06:32:49.934Z,45
2017-03-02T06:33:50.326Z,45
2017-03-02T06:34:50.315Z,45
2017-03-02T06:35:50.308Z,45
2017-03-02T06:36:49.915Z,45
2017-03-02T06:37:49.917Z,50
2017-03-02T06:38:50.284Z,50
2017-03-02T06:39:50.233Z,50
2017-03-02T06:40:50.252Z,50
2017-03-02T06:41:49.880Z,50
2017-03-02T06:42:50.225Z,55
2017-03-02T06:43:50.207Z,55
2017-03-02T06:44:49.793Z,55
2017-03-02T06:45:50.181Z,60
2017-03-02T06:46:49.779Z,65
2017-03-02T06:47:50.139Z,70
2017-03-02T06:48:50.135Z,70
2017-03-02T06:49:49.717Z,75
2017-03-02T06:50:50.110Z,80
2017-03-02T06:51:50.105Z,80
2017-03-02T06:52:50.072Z,100
2017-03-02T06:53:50.068Z,130
2017-03-02T06:54:50.063Z,95
2017-03-02T06:55:50.044Z,85
2017-03-02T06:56:50.030Z,80
2017-03-02T06:57:50.006Z,80
2017-03-02T06:58:49.991Z,105
2017-03-02T06:59:49.600Z,90
2017-03-02T07:00:49.578Z,80
2017-03-02T07:01:49.580Z,85
2017-03-02T07:02:49.951Z,90
2017-03-02T07:03:49.925Z,80
2017-03-02T07:04:49.937Z,100
2017-03-02T07:05:49.496Z,90
2017-03-02T07:06:49.894Z,95
2017-03-02T07:07:49.885Z,85
2017-03-02T07:08:49.475Z,75
2017-03-02T07:09:49.451Z,80
2017-03-02T07:10:49.435Z,75
2017-03-02T07:11:49.845Z,70
2017-03-02T07:12:49.843Z,70
2017-03-02T07:13:49.402Z,85
2017-03-02T07:14:49.805Z,100
2017-03-02T07:15:49.399Z,100
2017-03-02T07:16:49.769Z,85
2017-03-02T07:17:49.767Z,75
2017-03-02T07:18:49.732Z,75
2017-03-02T07:19:49.729Z,80
2017-03-02T07:20:49.711Z,85
2017-03-02T07:21:49.689Z,75
2017-03-02T07:22:49.695Z,80
2017-03-02T07:23:49.679Z,90
2017-03-02T07:24:49.654Z,115
2017-03-02T07:25:49.669Z,105
2017-03-02T07:26:49.637Z,125
2017-03-02T07:27:49.238Z,110
2017-03-02T07:28:49.600Z,105
2017-03-02T07:29:49.596Z,95
2017-03-02T07:30:49.578Z,100
2017-03-02T07:31:49.167Z,105
2017-03-02T07:32:49.550Z,80
2017-03-02T07:33:49.573Z,50
2017-03-02T07:34:49.560Z,60
2017-03-02T07:35:49.546Z,85
2017-03-02T07:36:49.524Z,70
2017-03-02T07:37:49.503Z,65
2017-03-02T07:38:49.483Z,70
2017-03-02T07:39:49.465Z,70
2017-03-02T07:40:49.452Z,85
2017-03-02T07:41:49.454Z,110
2017-03-02T07:42:49.463Z,110
2017-03-02T07:43:49.432Z,90
2017-03-02T07:44:49.425Z,95
2017-03-02T07:45:49.405Z,115
2017-03-02T07:46:49.391Z,110
2017-03-02T07:47:48.987Z,95
2017-03-02T07:48:48.970Z,100
2017-03-02T07:49:49.341Z,105
2017-03-02T07:50:48.946Z,115
2017-03-02T07:51:49.336Z,110
2017-03-02T07:52:49.321Z,100
2017-03-02T07:53:49.304Z,90
2017-03-02T07:54:49.274Z,100
2017-03-02T07:55:49.262Z,145
2017-03-02T07:56:49.254Z,130
2017-03-02T07:57:49.248Z,160
2017-03-02T07:58:49.223Z,140
2017-03-02T07:59:48.813Z,175
2017-03-02T08:00:49.224Z,145
2017-03-02T08:01:49.216Z,155
2017-03-02T08:02:49.187Z,145
2017-03-02T08:03:49.172Z,185
2017-03-02T08:04:49.179Z,190
2017-03-02T08:05:49.139Z,210
2017-03-02T08:06:49.128Z,190
2017-03-02T08:07:49.122Z,160
2017-03-02T08:08:49.109Z,195
2017-03-02T08:09:49.099Z,195
2017-03-02T08:10:49.098Z,270
2017-03-02T08:11:49.084Z,195
2017-03-02T08:12:49.051Z,175
2017-03-02T08:13:49.033Z,200
2017-03-02T08:14:49.053Z,220
2017-03-02T08:15:48.613Z,195
2017-03-02T08:16:48.634Z,160
2017-03-02T08:17:48.621Z,95
2017-03-02T08:18:48.602Z,60
2017-03-02T08:19:48.955Z,55
2017-03-02T08:20:48.587Z,105
2017-03-02T08:21:48.941Z,115
2017-03-02T08:22:48.524Z,95
2017-03-02T08:23:48.928Z,65
2017-03-02T08:24:48.914Z,75
2017-03-02T08:25:48.910Z,155
2017-03-02T08:26:48.898Z,180
2017-03-02T08:27:48.878Z,180
2017-03-02T08:28:48.855Z,185
2017-03-02T08:29:48.836Z,175
2017-03-02T08:30:48.444Z,170
2017-03-02T08:31:48.811Z,170
2017-03-02T08:32:48.806Z,150
2017-03-02T08:33:48.796Z,145
2017-03-02T08:34:48.779Z,130
2017-03-02T08:35:48.353Z,115
2017-03-02T08:36:48.761Z,110
2017-03-02T08:37:48.736Z,105
2017-03-02T08:38:48.713Z,110
2017-03-02T08:39:48.709Z,110
2017-03-02T08:40:48.293Z,110
2017-03-02T08:41:48.287Z,110
2017-03-02T08:42:48.668Z,110
2017-03-02T08:43:48.663Z,110
2017-03-02T08:44:48.645Z,110
2017-03-02T08:45:48.232Z,110
2017-03-02T08:46:48.612Z,110
2017-03-02T08:47:48.602Z,110
2017-03-02T08:48:48.216Z,110
2017-03-02T08:49:48.185Z,110
2017-03-02T08:50:48.153Z,110
2017-03-02T08:51:48.590Z,110
2017-03-02T08:52:48.531Z,110
2017-03-02T08:53:48.523Z,110
2017-03-02T08:54:48.505Z,110
2017-03-02T08:55:48.487Z,110
2017-03-02T08:56:48.479Z,110
2017-03-02T08:57:48.463Z,110
2017-03-02T08:58:48.451Z,110
2017-03-02T08:59:48.429Z,105
2017-03-02T09:00:48.433Z,105
2017-03-02T09:01:48.017Z,110
2017-03-02T09:02:48.390Z,110
2017-03-02T09:03:48.394Z,105
2017-03-02T09:04:48.359Z,105
2017-03-02T09:05:48.353Z,110
2017-03-02T09:06:47.950Z,115
2017-03-02T09:07:48.320Z,130
2017-03-02T09:08:47.916Z,125
2017-03-02T09:09:48.298Z,145
2017-03-02T09:10:48.278Z,115
2017-03-02T09:11:48.274Z,110
2017-03-02T09:12:48.243Z,110
2017-03-02T09:13:48.242Z,115
2017-03-02T09:14:48.261Z,120
2017-03-02T09:15:48.196Z,120
2017-03-02T09:16:48.191Z,120
2017-03-02T09:17:48.172Z,120
2017-03-02T09:18:48.172Z,125
2017-03-02T09:19:48.176Z,130
2017-03-02T09:20:48.146Z,130
2017-03-02T09:21:48.130Z,135
2017-03-02T09:22:48.128Z,135
2017-03-02T09:23:48.133Z,155
2017-03-02T09:24:48.088Z,170
2017-03-02T09:25:47.667Z,195
2017-03-02T09:26:48.079Z,175
2017-03-02T09:27:48.045Z,180
2017-03-02T09:28:47.648Z,240
2017-03-02T09:29:48.024Z,285
2017-03-02T09:30:47.637Z,230
2017-03-02T09:31:48.007Z,160
2017-03-02T09:32:47.992Z,200
2017-03-02T09:33:47.974Z,260
2017-03-02T09:34:47.955Z,320
2017-03-02T09:35:47.564Z,315
2017-03-02T09:36:47.947Z,285
2017-03-02T09:37:47.524Z,285
2017-03-02T09:38:47.125Z,225
2017-03-02T09:39:47.906Z,190
2017-03-02T09:40:47.495Z,160
2017-03-02T09:41:47.858Z,160
2017-03-02T09:42:46.660Z,155
2017-03-02T09:43:47.858Z,145
2017-03-02T09:44:47.828Z,185
2017-03-02T09:45:47.827Z,185
2017-03-02T09:46:47.802Z,150
2017-03-02T09:47:47.387Z,155
2017-03-02T09:48:47.781Z,140
2017-03-02T09:49:47.785Z,175
2017-03-02T09:50:47.363Z,240
2017-03-02T09:51:47.753Z,205
2017-03-02T09:52:47.725Z,170
2017-03-02T09:53:48.672Z,155
2017-03-02T09:54:47.305Z,135
2017-03-02T09:55:47.710Z,125
2017-03-02T09:56:47.679Z,120
2017-03-02T09:57:47.662Z,145
2017-03-02T09:58:47.260Z,135
2017-03-02T09:59:47.640Z,110
2017-03-02T10:00:47.644Z,110
2017-03-02T10:01:47.628Z,110
2017-03-02T10:02:47.615Z,125
2017-03-02T10:03:47.588Z,125
2017-03-02T10:04:47.190Z,135
2017-03-02T10:05:47.562Z,125
2017-03-02T10:06:47.575Z,145
2017-03-02T10:07:47.559Z,170
2017-03-02T10:08:47.529Z,155
2017-03-02T10:09:47.527Z,175
2017-03-02T10:10:47.538Z,145
2017-03-02T10:11:46.688Z,145
2017-03-02T10:12:47.073Z,150
2017-03-02T10:13:46.684Z,205
2017-03-02T10:14:47.454Z,225
2017-03-02T10:15:47.462Z,280
2017-03-02T10:16:47.017Z,250
2017-03-02T10:17:47.408Z,195
2017-03-02T10:18:47.021Z,185
2017-03-02T10:19:46.996Z,235
2017-03-02T10:20:46.984Z,270
2017-03-02T10:21:46.960Z,255
2017-03-02T10:22:46.957Z,280
2017-03-02T10:23:46.954Z,225
2017-03-02T10:24:47.614Z,220
2017-03-02T10:25:47.354Z,225
2017-03-02T10:26:47.315Z,220
2017-03-02T10:27:47.294Z,205
2017-03-02T10:28:47.403Z,270
2017-03-02T10:29:47.260Z,310
2017-03-02T10:30:46.864Z,340
2017-03-02T10:31:47.271Z,315
2017-03-02T10:32:47.238Z,350
2017-03-02T10:33:46.849Z,300
2017-03-02T10:34:47.207Z,250
2017-03-02T10:35:46.802Z,270
2017-03-02T10:36:47.187Z,275
2017-03-02T10:37:47.187Z,260
2017-03-02T10:38:47.195Z,235
2017-03-02T10:39:47.151Z,295
2017-03-02T10:40:47.159Z,285
2017-03-02T10:41:47.136Z,280
2017-03-02T10:42:47.121Z,275
2017-03-02T10:43:47.136Z,295
2017-03-02T10:44:47.083Z,320
2017-03-02T10:45:47.092Z,275
2017-03-02T10:46:47.077Z,290
2017-03-02T10:47:47.074Z,275
2017-03-02T10:48:47.051Z,255
2017-03-02T10:49:46.651Z,270
2017-03-02T10:50:46.639Z,285
2017-03-02T10:51:46.629Z,290
2017-03-02T10:52:46.614Z,315
2017-03-02T10:53:46.987Z,330
2017-03-02T10:54:46.593Z,260
2017-03-02T10:55:46.973Z,285
2017-03-02T10:56:46.569Z,290
2017-03-02T10:57:46.965Z,270
2017-03-02T10:58:46.956Z,270
2017-03-02T10:59:46.937Z,250
2017-03-02T11:00:46.511Z,225
2017-03-02T11:01:46.925Z,260
2017-03-02T11:02:46.901Z,225
2017-03-02T11:03:46.882Z,285
2017-03-02T11:04:46.875Z,265
2017-03-02T11:05:46.881Z,210
2017-03-02T11:06:46.855Z,195
2017-03-02T11:07:46.839Z,180
2017-03-02T11:08:46.848Z,210
2017-03-02T11:09:46.838Z,255
2017-03-02T11:10:46.817Z,280
2017-03-02T11:11:46.803Z,240
2017-03-02T11:12:46.784Z,185
2017-03-02T11:13:46.776Z,125
2017-03-02T11:14:46.362Z,125
2017-03-02T11:15:46.766Z,185
2017-03-02T11:16:46.742Z,240
2017-03-02T11:17:46.353Z,245
2017-03-02T11:18:46.706Z,275
2017-03-02T11:19:46.707Z,230
2017-03-02T11:20:46.697Z,200
2017-03-02T11:21:46.688Z,185
2017-03-02T11:22:46.672Z,210
2017-03-02T11:23:46.654Z,230
2017-03-02T11:24:46.675Z,265
2017-03-02T11:25:46.263Z,290
2017-03-02T11:26:46.630Z,315
2017-03-02T11:27:46.624Z,295
2017-03-02T11:28:46.616Z,265
2017-03-02T11:29:46.631Z,190
2017-03-02T11:30:46.584Z,175
2017-03-02T11:31:46.570Z,220
2017-03-02T11:32:46.560Z,255
2017-03-02T11:33:46.562Z,295
2017-03-02T11:34:46.539Z,280
2017-03-02T11:35:46.140Z,225
2017-03-02T11:36:46.114Z,215
2017-03-02T11:37:46.511Z,240
2017-03-02T11:38:46.101Z,330
2017-03-02T11:39:46.490Z,285
2017-03-02T11:40:46.090Z,265
2017-03-02T11:41:46.464Z,220
2017-03-02T11:42:46.477Z,235
2017-03-02T11:43:46.440Z,235
2017-03-02T11:44:46.436Z,215
2017-03-02T11:45:46.428Z,225
2017-03-02T11:46:46.412Z,205
2017-03-02T11:47:46.387Z,205
2017-03-02T11:48:46.388Z,230
2017-03-02T11:49:46.375Z,230
2017-03-02T11:50:46.378Z,215
2017-03-02T11:51:46.362Z,210
2017-03-02T11:52:45.951Z,195
2017-03-02T11:53:46.338Z,175
2017-03-02T11:54:46.312Z,155
2017-03-02T11:55:46.323Z,145
2017-03-02T11:56:46.311Z,160
2017-03-02T11:57:46.304Z,160
2017-03-02T11:58:45.482Z,140
2017-03-02T11:59:46.274Z,145
2017-03-02T12:00:46.269Z,180
2017-03-02T12:01:46.255Z,205
2017-03-02T12:02:45.852Z,195
2017-03-02T12:03:46.241Z,235
2017-03-02T12:04:46.209Z,230
2017-03-02T12:05:45.808Z,155
2017-03-02T12:06:45.791Z,140
2017-03-02T12:07:46.193Z,130
2017-03-02T12:08:46.209Z,125
2017-03-02T12:09:45.764Z,145
2017-03-02T12:10:46.164Z,155
2017-03-02T12:11:46.143Z,180
2017-03-02T12:12:46.124Z,210
2017-03-02T12:13:45.732Z,225
2017-03-02T12:14:45.704Z,265
2017-03-02T12:15:46.122Z,305
2017-03-02T12:16:46.115Z,320
2017-03-02T12:17:46.084Z,315
2017-03-02T12:18:46.063Z,245
2017-03-02T12:19:46.045Z,235
2017-03-02T12:20:46.042Z,190
2017-03-02T12:21:46.028Z,170
2017-03-02T12:22:46.026Z,185
2017-03-02T12:23:45.210Z,220
2017-03-02T12:24:46.012Z,285
2017-03-02T12:25:45.981Z,290
2017-03-02T12:26:45.979Z,235
2017-03-02T12:27:45.955Z,225
2017-03-02T12:28:45.575Z,205
2017-03-02T12:29:45.570Z,180
2017-03-02T12:30:45.944Z,185
2017-03-02T12:31:45.923Z,175
2017-03-02T12:32:45.911Z,175
2017-03-02T12:33:45.899Z,160
2017-03-02T12:34:45.892Z,170
2017-03-02T12:35:45.492Z,190
2017-03-02T12:36:45.882Z,240
2017-03-02T12:37:45.874Z,240
2017-03-02T12:38:45.851Z,225
2017-03-02T12:39:45.833Z,220
2017-03-02T12:40:45.833Z,220
2017-03-02T12:41:45.026Z,215
2017-03-02T12:42:45.820Z,190
2017-03-02T12:43:45.790Z,180
2017-03-02T12:44:45.799Z,210
2017-03-02T12:45:45.780Z,205
2017-03-02T12:46:45.358Z,205
2017-03-02T12:47:45.343Z,210
2017-03-02T12:48:45.750Z,245
2017-03-02T12:49:45.751Z,230
2017-03-02T12:50:45.716Z,195
2017-03-02T12:51:45.712Z,185
2017-03-02T12:52:45.742Z,200
2017-03-02T12:53:45.705Z,230
2017-03-02T12:54:45.681Z,250
2017-03-02T12:55:45.683Z,245
2017-03-02T12:56:45.665Z,265
2017-03-02T12:57:45.652Z,255
2017-03-02T12:58:45.665Z,255
2017-03-02T12:59:45.617Z,275
2017-03-02T13:00:45.621Z,275
2017-03-02T13:01:45.216Z,260
2017-03-02T13:02:45.595Z,240
2017-03-02T13:03:45.582Z,200
2017-03-02T13:04:45.607Z,145
2017-03-02T13:05:45.173Z,135
2017-03-02T13:06:45.556Z,125
2017-03-02T13:07:45.543Z,105
2017-03-02T13:08:45.545Z,100
2017-03-02T13:09:45.528Z,80
2017-03-02T13:10:45.116Z,90
2017-03-02T13:11:45.500Z,90
2017-03-02T13:12:45.094Z,95
2017-03-02T13:13:44.688Z,100
2017-03-02T13:14:45.077Z,95
2017-03-02T13:15:45.464Z,120
2017-03-02T13:16:45.459Z,110
2017-03-02T13:17:45.446Z,115
2017-03-02T13:18:45.416Z,130
2017-03-02T13:19:45.030Z,115
2017-03-02T13:20:45.456Z,95
2017-03-02T13:21:45.385Z,75
2017-03-02T13:22:45.380Z,65
2017-03-02T13:23:44.979Z,80
2017-03-02T13:24:45.352Z,105
2017-03-02T13:25:45.343Z,110
2017-03-02T13:26:45.340Z,85
2017-03-02T13:27:45.375Z,70
2017-03-02T13:28:45.315Z,85
2017-03-02T13:29:44.906Z,95
2017-03-02T13:30:45.307Z,70
2017-03-02T13:31:45.278Z,80
2017-03-02T13:32:44.867Z,95
2017-03-02T13:33:45.286Z,95
2017-03-02T13:34:44.843Z,75
2017-03-02T13:35:44.452Z,65
2017-03-02T13:36:44.875Z,60
2017-03-02T13:37:44.815Z,65
2017-03-02T13:38:44.792Z,60
2017-03-02T13:39:44.784Z,75
2017-03-02T13:40:44.377Z,115
2017-03-02T13:41:44.755Z,115
2017-03-02T13:42:45.158Z,125
2017-03-02T13:43:45.142Z,140
2017-03-02T13:44:45.131Z,160
2017-03-02T13:45:45.148Z,165
2017-03-02T13:46:45.110Z,170
2017-03-02T13:47:44.708Z,175
2017-03-02T13:48:44.677Z,170
2017-03-02T13:49:44.673Z,150
2017-03-02T13:50:44.648Z,200
2017-03-02T13:51:45.069Z,220
2017-03-02T13:52:44.634Z,240
2017-03-02T13:53:44.229Z,265
2017-03-02T13:54:45.020Z,270
2017-03-02T13:55:44.597Z,235
2017-03-02T13:56:44.977Z,200
2017-03-02T13:57:44.560Z,165
2017-03-02T13:58:44.970Z,135
2017-03-02T13:59:44.938Z,135
2017-03-02T14:00:44.955Z,160
2017-03-02T14:01:44.541Z,170
2017-03-02T14:02:44.923Z,180
2017-03-02T14:03:44.097Z,210
2017-03-02T14:04:44.909Z,195
2017-03-02T14:05:44.877Z,160
2017-03-02T14:06:44.475Z,135
2017-03-02T14:07:44.870Z,140
2017-03-02T14:08:44.844Z,140
2017-03-02T14:09:44.837Z,145
2017-03-02T14:10:44.834Z,150
2017-03-02T14:11:44.796Z,145
2017-03-02T14:12:44.403Z,125
2017-03-02T14:13:44.778Z,100
2017-03-02T14:14:44.795Z,100